createdAt,value
2022-11-17T00:00:52.793Z,99807.03
2022-11-17T00:03:21.699Z,99813.63
2022-11-17T00:05:51.753Z,99808.44
2022-11-17T00:08:20.644Z,99812.09
2022-11-17T00:10:49.252Z,99813.75
2022-11-17T00:13:36.076Z,99816.03
2022-11-17T00:16:05.593Z,99821.25
2022-11-17T00:18:51.982Z,99816.31
2022-11-17T00:21:23.807Z,99820.34
2022-11-17T00:23:52.895Z,99826.78
2022-11-17T00:26:24.464Z,99812.88
2022-11-17T00:28:55.106Z,99806.06
2022-11-17T00:31:42.787Z,99818.28
2022-11-17T00:34:15.569Z,99820.25
2022-11-17T00:36:48.850Z,99826.44
2022-11-17T00:39:20.765Z,99836.69
2022-11-17T00:41:49.884Z,99829.09
2022-11-17T00:44:18.995Z,99834.38
2022-11-17T00:46:48.571Z,99837.78
2022-11-17T00:49:17.940Z,99837.00
2022-11-17T00:51:48.286Z,99836.63
2022-11-17T00:54:17.242Z,99834.53
2022-11-17T00:56:46.135Z,99834.19
2022-11-17T00:59:16.009Z,99834.78
2022-11-17T01:01:45.435Z,99838.13
2022-11-17T01:04:15.857Z,99827.91
2022-11-17T01:06:49.073Z,99822.00
2022-11-17T01:09:20.965Z,99827.25
2022-11-17T01:11:52.655Z,99825.19
2022-11-17T01:14:24.754Z,99824.09
2022-11-17T01:16:54.798Z,99826.75
2022-11-17T01:19:24.757Z,99828.50
2022-11-17T01:21:54.816Z,99826.44
2022-11-17T01:24:23.704Z,99838.94
2022-11-17T01:26:52.366Z,99832.53
2022-11-17T01:29:21.321Z,99826.69
2022-11-17T01:31:53.226Z,99829.47
2022-11-17T01:34:22.247Z,99831.16
2022-11-17T01:37:08.312Z,99834.34
2022-11-17T01:39:38.563Z,99833.94
2022-11-17T01:42:16.516Z,99832.53
2022-11-17T01:44:59.815Z,99828.75
2022-11-17T01:47:40.993Z,99827.34
2022-11-17T01:50:22.486Z,99819.38
2022-11-17T01:52:54.663Z,99819.50
2022-11-17T01:55:29.273Z,99816.56
2022-11-17T01:58:03.118Z,99829.25
2022-11-17T02:00:32.425Z,99831.41
2022-11-17T02:03:02.326Z,99830.69
2022-11-17T02:05:44.372Z,99832.97
2022-11-17T02:08:14.256Z,99816.63
2022-11-17T02:10:50.331Z,99818.91
2022-11-17T02:13:22.888Z,99822.13
2022-11-17T02:15:51.927Z,99817.00
2022-11-17T02:18:21.279Z,99816.91
2022-11-17T02:21:16.119Z,99816.25
2022-11-17T02:24:27.957Z,99819.94
2022-11-17T02:27:46.404Z,99813.94
2022-11-17T02:30:20.537Z,99811.66
2022-11-17T02:33:04.086Z,99820.31
2022-11-17T02:35:46.480Z,99816.34
2022-11-17T02:38:29.412Z,99817.25
2022-11-17T02:41:08.848Z,99825.53
2022-11-17T02:44:07.658Z,99816.13
2022-11-17T02:46:46.282Z,99820.59
2022-11-17T02:49:23.128Z,99808.91
2022-11-17T02:51:56.203Z,99807.88
2022-11-17T02:54:29.377Z,99815.41
2022-11-17T02:56:58.182Z,99822.03
2022-11-17T02:59:34.258Z,99812.81
2022-11-17T03:02:28.342Z,99818.78
2022-11-17T03:05:10.998Z,99818.50
2022-11-17T03:08:02.767Z,99813.66
2022-11-17T03:10:48.892Z,99819.59
2022-11-17T03:18:03.983Z,99808.22
2022-11-17T03:20:43.519Z,99815.41
2022-11-17T03:23:19.477Z,99813.94
2022-11-17T03:25:56.143Z,99807.09
2022-11-17T03:28:31.317Z,99806.97
2022-11-17T03:31:01.413Z,99802.94
2022-11-17T03:33:33.886Z,99799.19
2022-11-17T03:36:10.717Z,99815.66
2022-11-17T03:38:46.138Z,99801.66
2022-11-17T03:41:19.342Z,99810.09
2022-11-17T03:43:51.952Z,99814.50
2022-11-17T03:46:23.992Z,99812.63
2022-11-17T03:49:03.958Z,99812.00
2022-11-17T03:51:33.878Z,99818.31
2022-11-17T03:54:03.047Z,99815.22
2022-11-17T03:56:45.305Z,99813.69
2022-11-17T03:59:20.853Z,99805.53
2022-11-17T04:01:49.443Z,99806.22
2022-11-17T04:04:23.129Z,99801.91
2022-11-17T04:06:53.894Z,99812.25
2022-11-17T04:09:24.592Z,99806.16
2022-11-17T04:12:11.137Z,99806.63
2022-11-17T04:14:57.731Z,99812.94
2022-11-17T04:17:26.420Z,99817.41
2022-11-17T04:19:56.630Z,99811.81
2022-11-17T04:22:25.223Z,99810.47
2022-11-17T04:24:54.154Z,99813.94
2022-11-17T04:27:39.307Z,99811.75
2022-11-17T04:30:09.678Z,99811.16
2022-11-17T04:32:38.253Z,99823.56
2022-11-17T04:35:09.426Z,99805.38
2022-11-17T04:37:38.020Z,99820.47
2022-11-17T04:44:38.238Z,99814.50
2022-11-17T04:47:07.077Z,99819.53
2022-11-17T04:49:35.990Z,99815.59
2022-11-17T04:52:06.773Z,99821.94
2022-11-17T04:54:36.012Z,99830.50
2022-11-17T04:57:04.823Z,99825.22
2022-11-17T04:59:33.710Z,99832.13
2022-11-17T05:02:05.926Z,99820.81
2022-11-17T05:04:53.141Z,99824.47
2022-11-17T05:07:23.288Z,99817.81
2022-11-17T05:09:52.202Z,99821.34
2022-11-17T05:12:38.405Z,99828.81
2022-11-17T05:15:08.707Z,99829.25
2022-11-17T05:17:36.292Z,99824.16
2022-11-17T05:20:06.376Z,99819.69
2022-11-17T05:22:53.701Z,99816.81
2022-11-17T05:25:22.869Z,99817.59
2022-11-17T05:27:51.510Z,99819.78
2022-11-17T05:30:20.586Z,99811.09
2022-11-17T05:32:49.301Z,99810.34
2022-11-17T05:35:18.254Z,99810.66
2022-11-17T05:37:48.170Z,99811.81
2022-11-17T05:40:17.541Z,99815.91
2022-11-17T05:42:46.087Z,99819.47
2022-11-17T05:45:15.071Z,99805.00
2022-11-17T05:47:43.638Z,99817.00
2022-11-17T05:50:12.560Z,99819.19
2022-11-17T05:52:41.087Z,99820.38
2022-11-17T05:55:11.398Z,99810.50
2022-11-17T05:57:40.062Z,99826.84
2022-11-17T06:00:11.394Z,99819.84
2022-11-17T06:02:48.389Z,99822.19
2022-11-17T06:05:20.365Z,99820.69
2022-11-17T06:07:49.698Z,99824.97
2022-11-17T06:10:19.679Z,99822.22
2022-11-17T06:12:48.924Z,99830.41
2022-11-17T06:15:18.195Z,99827.88
2022-11-17T06:17:53.948Z,99829.84
2022-11-17T06:20:29.466Z,99828.03
2022-11-17T06:23:02.252Z,99836.41
2022-11-17T06:25:35.359Z,99835.81
2022-11-17T06:28:09.336Z,99834.88
2022-11-17T06:30:39.681Z,99842.69
2022-11-17T06:33:13.174Z,99832.34
2022-11-17T06:35:44.405Z,99836.03
2022-11-17T06:38:13.345Z,99836.31
2022-11-17T06:40:43.516Z,99840.16
2022-11-17T06:43:12.499Z,99846.56
2022-11-17T06:45:43.921Z,99849.44
2022-11-17T06:48:16.457Z,99841.66
2022-11-17T06:50:45.734Z,99843.53
2022-11-17T06:53:14.620Z,99836.19
2022-11-17T06:55:50.074Z,99842.53
2022-11-17T06:58:18.986Z,99847.28
2022-11-17T07:00:47.607Z,99836.53
2022-11-17T07:03:16.557Z,99846.13
2022-11-17T07:05:45.162Z,99842.91
2022-11-17T07:08:14.594Z,99844.69
2022-11-17T07:10:49.154Z,99844.06
2022-11-17T07:13:18.308Z,99854.50
2022-11-17T07:15:46.896Z,99853.03
2022-11-17T07:18:15.805Z,99850.66
2022-11-17T07:20:44.433Z,99852.16
2022-11-17T07:23:13.337Z,99849.03
2022-11-17T07:25:43.852Z,99859.31
2022-11-17T07:28:14.086Z,99850.09
2022-11-17T07:30:42.662Z,99857.25
2022-11-17T07:33:11.560Z,99858.78
2022-11-17T07:35:40.159Z,99859.69
2022-11-17T07:38:09.160Z,99864.34
2022-11-17T07:42:17.783Z,99865.38
2022-11-17T07:44:56.114Z,99872.53
2022-11-17T07:47:24.836Z,99867.13
2022-11-17T07:49:53.792Z,99879.47
2022-11-17T07:52:22.404Z,99878.84
2022-11-17T07:54:51.336Z,99876.63
2022-11-17T07:57:21.133Z,99876.09
2022-11-17T08:04:24.434Z,99873.75
2022-11-17T08:06:53.401Z,99872.41
2022-11-17T08:09:22.033Z,99872.97
2022-11-17T08:11:51.888Z,99869.59
2022-11-17T08:14:20.494Z,99879.81
2022-11-17T08:16:49.436Z,99882.53
2022-11-17T08:19:18.125Z,99881.44
2022-11-17T08:21:48.552Z,99877.91
2022-11-17T08:24:17.350Z,99870.22
2022-11-17T08:26:46.256Z,99871.16
2022-11-17T08:29:14.852Z,99870.94
2022-11-17T08:36:16.469Z,99869.56
2022-11-17T08:38:46.382Z,99869.41
2022-11-17T08:41:15.279Z,99877.25
2022-11-17T08:43:44.013Z,99870.81
2022-11-17T08:46:14.198Z,99854.84
2022-11-17T08:48:42.776Z,99870.03
2022-11-17T08:51:15.307Z,99869.88
2022-11-17T08:53:44.001Z,99870.34
2022-11-17T08:56:14.758Z,99865.25
2022-11-17T08:58:45.709Z,99870.03
2022-11-17T09:01:17.043Z,99864.59
2022-11-17T09:03:47.921Z,99870.44
2022-11-17T09:06:18.087Z,99862.56
2022-11-17T09:08:56.222Z,99867.13
2022-11-17T09:11:26.730Z,99869.72
2022-11-17T09:13:55.418Z,99869.16
2022-11-17T09:16:25.380Z,99861.22
2022-11-17T09:18:58.361Z,99862.06
2022-11-17T09:21:28.856Z,99862.72
2022-11-17T09:23:57.537Z,99861.59
2022-11-17T09:26:27.889Z,99860.75
2022-11-17T09:28:56.517Z,99860.75
2022-11-17T09:31:25.628Z,99855.06
2022-11-17T09:33:54.344Z,99850.66
2022-11-17T09:36:23.316Z,99851.53
2022-11-17T09:38:51.928Z,99858.09
2022-11-17T09:41:29.256Z,99855.00
2022-11-17T09:44:17.321Z,99844.41
2022-11-17T09:47:09.059Z,99857.03
2022-11-17T09:49:59.041Z,99855.59
2022-11-17T09:52:38.012Z,99859.16
2022-11-17T09:55:29.698Z,99857.53
2022-11-17T10:02:37.733Z,99815.06
2022-11-17T10:05:07.826Z,99844.09
2022-11-17T10:07:36.763Z,99830.31
2022-11-17T10:10:14.272Z,99832.28
2022-11-17T10:12:51.202Z,99839.13
2022-11-17T10:15:30.416Z,99845.41
2022-11-17T10:18:00.371Z,99838.75
2022-11-17T10:20:29.334Z,99833.22
2022-11-17T10:22:58.692Z,99837.03
2022-11-17T10:25:40.349Z,99832.63
2022-11-17T10:28:23.341Z,99824.91
2022-11-17T10:31:00.188Z,99818.81
2022-11-17T10:33:40.432Z,99830.03
2022-11-17T10:36:20.736Z,99830.19
2022-11-17T10:38:53.121Z,99832.78
2022-11-17T10:41:28.195Z,99831.38
2022-11-17T10:44:03.389Z,99824.66
2022-11-17T10:46:43.062Z,99834.78
2022-11-17T10:54:04.339Z,99826.88
2022-11-17T10:56:40.471Z,99824.28
2022-11-17T10:59:21.795Z,99826.91
2022-11-17T11:01:52.528Z,99812.88
2022-11-17T11:04:33.596Z,99821.75
2022-11-17T11:07:13.184Z,99810.56
2022-11-17T11:09:58.385Z,99829.00
2022-11-17T11:12:37.701Z,99826.25
2022-11-17T11:15:34.000Z,99825.22
2022-11-17T11:18:03.236Z,99818.69
2022-11-17T11:20:46.373Z,99809.66
2022-11-17T11:23:27.500Z,99819.47
2022-11-17T11:26:11.608Z,99812.44
2022-11-17T11:28:59.183Z,99821.06
2022-11-17T11:31:46.898Z,99803.72
2022-11-17T11:34:40.217Z,99814.75
2022-11-17T11:37:12.544Z,99808.50
2022-11-17T11:39:55.627Z,99810.03
2022-11-17T11:42:48.419Z,99814.09
2022-11-17T11:45:30.588Z,99803.66
2022-11-17T11:48:18.655Z,99810.78
2022-11-17T11:50:58.899Z,99803.13
2022-11-17T11:53:38.891Z,99797.13
2022-11-17T11:56:21.365Z,99800.81
2022-11-17T12:03:34.783Z,99805.81
2022-11-17T12:06:33.705Z,99801.63
2022-11-17T12:09:50.193Z,99804.22
2022-11-17T12:12:24.069Z,99798.25
2022-11-17T12:15:31.937Z,99802.84
2022-11-17T12:18:04.893Z,99789.63
2022-11-17T12:20:55.915Z,99794.69
2022-11-17T12:24:14.831Z,99785.53
2022-11-17T12:26:44.053Z,99784.44
2022-11-17T12:29:31.946Z,99773.06
2022-11-17T12:32:03.638Z,99793.75
2022-11-17T12:34:35.951Z,99788.75
2022-11-17T12:37:21.865Z,99780.22
2022-11-17T12:40:03.193Z,99786.75
2022-11-17T12:42:33.962Z,99784.44
2022-11-17T12:45:12.436Z,99777.53
2022-11-17T12:47:46.185Z,99774.53
2022-11-17T12:50:43.136Z,99778.38
2022-11-17T12:53:48.342Z,99785.19
2022-11-17T12:56:53.443Z,99780.13
2022-11-17T13:00:01.098Z,99779.72
2022-11-17T13:03:08.844Z,99771.69
2022-11-17T13:05:38.536Z,99765.56
2022-11-17T13:08:25.659Z,99769.34
2022-11-17T13:11:05.366Z,99766.97
2022-11-17T13:13:36.917Z,99768.69
2022-11-17T13:16:06.675Z,99767.06
2022-11-17T13:18:41.107Z,99770.53
2022-11-17T13:21:30.079Z,99769.50
2022-11-17T13:24:01.444Z,99764.09
2022-11-17T13:26:37.885Z,99771.97
2022-11-17T13:29:08.289Z,99765.28
2022-11-17T13:31:37.687Z,99765.38
2022-11-17T13:34:14.442Z,99768.38
2022-11-17T13:36:55.081Z,99767.94
2022-11-17T13:39:27.784Z,99764.41
2022-11-17T13:41:58.828Z,99764.72
2022-11-17T13:44:29.792Z,99771.44
2022-11-17T13:46:58.774Z,99756.75
2022-11-17T13:49:36.833Z,99767.84
2022-11-17T13:52:14.791Z,99766.97
2022-11-17T13:54:46.286Z,99763.19
2022-11-17T13:57:28.198Z,99756.22
2022-11-17T13:59:57.879Z,99760.31
2022-11-17T14:02:30.496Z,99756.13
2022-11-17T14:05:26.479Z,99758.66
2022-11-17T14:07:58.185Z,99756.38
2022-11-17T14:10:38.121Z,99755.53
2022-11-17T14:13:32.161Z,99745.28
2022-11-17T14:16:01.974Z,99745.41
2022-11-17T14:18:37.601Z,99744.59
2022-11-17T14:21:12.608Z,99743.88
2022-11-17T14:23:43.024Z,99740.81
2022-11-17T14:26:25.349Z,99742.47
2022-11-17T14:28:55.282Z,99739.19
2022-11-17T14:31:23.906Z,99745.19
2022-11-17T14:33:52.738Z,99741.88
2022-11-17T14:36:21.429Z,99741.34
2022-11-17T14:38:50.310Z,99741.56
2022-11-17T14:41:21.277Z,99746.97
2022-11-17T14:43:51.277Z,99751.53
2022-11-17T14:46:24.224Z,99742.50
2022-11-17T14:48:55.462Z,99741.72
2022-11-17T14:51:24.286Z,99739.22
2022-11-17T14:58:27.022Z,99743.41
2022-11-17T15:00:55.959Z,99748.69
2022-11-17T15:03:25.244Z,99756.53
2022-11-17T15:05:54.487Z,99754.53
2022-11-17T15:08:23.876Z,99736.06
2022-11-17T15:10:52.791Z,99742.94
2022-11-17T15:17:56.058Z,99751.00
2022-11-17T15:20:25.118Z,99749.16
2022-11-17T15:22:56.812Z,99748.38
2022-11-17T15:25:28.904Z,99739.88
2022-11-17T15:27:58.018Z,99749.16
2022-11-17T15:30:26.606Z,99742.41
2022-11-17T15:33:01.079Z,99735.69
2022-11-17T15:35:30.647Z,99729.72
2022-11-17T15:37:59.496Z,99733.41
2022-11-17T15:40:28.083Z,99722.41
2022-11-17T15:42:56.978Z,99737.78
2022-11-17T15:45:25.696Z,99728.50
2022-11-17T15:47:55.955Z,99733.66
2022-11-17T15:50:24.517Z,99733.94
2022-11-17T15:53:04.081Z,99736.75
2022-11-17T15:55:35.649Z,99741.28
2022-11-17T15:58:04.554Z,99745.72
2022-11-17T16:00:34.933Z,99744.25
2022-11-17T16:03:07.159Z,99753.94
2022-11-17T16:05:35.994Z,99747.25
2022-11-17T16:08:05.000Z,99746.56
2022-11-17T16:10:33.650Z,99732.97
2022-11-17T16:13:02.594Z,99739.06
2022-11-17T16:15:31.175Z,99744.25
2022-11-17T16:18:00.121Z,99741.75
2022-11-17T16:20:30.102Z,99742.69
2022-11-17T16:22:59.176Z,99741.81
2022-11-17T16:25:27.788Z,99743.38
2022-11-17T16:27:57.068Z,99721.13
2022-11-17T16:30:32.736Z,99746.41
2022-11-17T16:33:05.119Z,99736.72
2022-11-17T16:35:35.103Z,99737.34
2022-11-17T16:38:04.212Z,99729.47
2022-11-17T16:40:35.146Z,99736.97
2022-11-17T16:43:04.004Z,99729.13
2022-11-17T16:45:32.624Z,99721.22
2022-11-17T16:48:01.496Z,99726.22
2022-11-17T16:50:30.091Z,99733.09
2022-11-17T16:53:00.298Z,99705.06
2022-11-17T16:55:28.955Z,99722.63
2022-11-17T16:57:57.806Z,99729.47
2022-11-17T17:00:26.444Z,99724.81
2022-11-17T17:02:57.170Z,99720.28
2022-11-17T17:05:26.407Z,99720.16
2022-11-17T17:07:55.267Z,99720.84
2022-11-17T17:10:25.901Z,99725.97
2022-11-17T17:12:54.802Z,99724.28
2022-11-17T17:15:23.401Z,99717.28
2022-11-17T17:17:52.372Z,99722.38
2022-11-17T17:20:21.096Z,99715.50
2022-11-17T17:22:49.965Z,99711.16
2022-11-17T17:25:18.541Z,99709.50
2022-11-17T17:27:48.829Z,99709.38
2022-11-17T17:30:17.676Z,99710.25
2022-11-17T17:32:46.671Z,99702.38
2022-11-17T17:35:15.493Z,99702.16
2022-11-17T17:37:44.514Z,99694.41
2022-11-17T17:40:14.109Z,99692.63
2022-11-17T17:42:43.168Z,99697.66
2022-11-17T17:45:14.787Z,99690.69
2022-11-17T17:47:43.719Z,99692.38
2022-11-17T17:50:12.364Z,99682.97
2022-11-17T17:52:41.225Z,99685.41
2022-11-17T17:55:11.714Z,99695.66
2022-11-17T17:57:40.916Z,99695.66
2022-11-17T18:00:12.892Z,99682.88
2022-11-17T18:02:41.930Z,99672.78
2022-11-17T18:05:10.999Z,99683.53
2022-11-17T18:07:40.033Z,99679.09
2022-11-17T18:10:09.575Z,99666.41
2022-11-17T18:12:38.529Z,99674.69
2022-11-17T18:15:09.755Z,99685.91
2022-11-17T18:17:40.084Z,99683.22
2022-11-17T18:20:11.233Z,99679.81
2022-11-17T18:22:40.099Z,99671.28
2022-11-17T18:25:12.533Z,99667.06
2022-11-17T18:27:44.080Z,99672.94
2022-11-17T18:30:13.792Z,99675.53
2022-11-17T18:32:44.103Z,99666.94
2022-11-17T18:35:12.707Z,99667.97
2022-11-17T18:37:41.816Z,99661.78
2022-11-17T18:40:12.908Z,99660.16
2022-11-17T18:42:41.763Z,99659.31
2022-11-17T18:45:11.006Z,99661.97
2022-11-17T18:47:39.856Z,99666.41
2022-11-17T18:50:11.055Z,99664.69
2022-11-17T18:57:13.123Z,99662.22
2022-11-17T18:59:41.725Z,99649.56
2022-11-17T19:02:10.582Z,99658.75
2022-11-17T19:04:39.215Z,99656.09
2022-11-17T19:07:09.563Z,99658.63
2022-11-17T19:09:38.180Z,99661.31
2022-11-17T19:12:08.879Z,99658.84
2022-11-17T19:14:37.587Z,99659.69
2022-11-17T19:17:06.492Z,99651.03
2022-11-17T19:19:35.039Z,99651.03
2022-11-17T19:22:04.530Z,99652.78
2022-11-17T19:24:34.560Z,99646.69
2022-11-17T19:27:03.859Z,99636.59
2022-11-17T19:29:32.419Z,99650.19
2022-11-17T19:32:01.321Z,99636.84
2022-11-17T19:34:29.934Z,99648.69
2022-11-17T19:36:58.821Z,99658.25
2022-11-17T19:39:27.539Z,99653.88
2022-11-17T19:41:57.809Z,99650.31
2022-11-17T19:44:26.520Z,99648.56
2022-11-17T19:46:55.397Z,99650.19
2022-11-17T19:49:23.987Z,99634.75
2022-11-17T19:51:52.881Z,99627.03
2022-11-17T19:54:21.888Z,99619.44
2022-11-17T19:56:50.886Z,99635.78
2022-11-17T19:59:21.085Z,99632.41
2022-11-17T20:01:50.357Z,99631.53
2022-11-17T20:04:19.259Z,99633.28
2022-11-17T20:06:48.261Z,99623.19
2022-11-17T20:09:17.118Z,99629.09
2022-11-17T20:11:46.179Z,99631.72
2022-11-17T20:14:15.411Z,99631.72
2022-11-17T20:16:45.746Z,99642.06
2022-11-17T20:19:14.976Z,99638.78
2022-11-17T20:21:44.052Z,99643.13
2022-11-17T20:24:12.937Z,99635.31
2022-11-17T20:26:43.135Z,99640.38
2022-11-17T20:29:11.720Z,99631.00
2022-11-17T20:31:40.663Z,99637.91
2022-11-17T20:34:14.063Z,99624.41
2022-11-17T20:36:43.097Z,99626.19
2022-11-17T20:39:11.783Z,99623.34
2022-11-17T20:41:40.651Z,99627.72
2022-11-17T20:44:23.941Z,99605.69
2022-11-17T20:46:54.995Z,99614.84
2022-11-17T20:49:27.721Z,99612.13
2022-11-17T20:51:56.599Z,99602.94
2022-11-17T20:54:25.219Z,99609.44
2022-11-17T20:56:54.175Z,99611.47
2022-11-17T20:59:22.973Z,99605.72
2022-11-17T21:01:52.134Z,99602.31
2022-11-17T21:04:20.741Z,99592.19
2022-11-17T21:11:43.150Z,99595.44
2022-11-17T21:14:13.961Z,99593.88
2022-11-17T21:16:45.710Z,99590.47
2022-11-17T21:19:15.818Z,99584.59
2022-11-17T21:21:45.456Z,99582.06
2022-11-17T21:24:14.529Z,99580.44
2022-11-17T21:26:45.554Z,99575.28
2022-11-17T21:29:14.187Z,99572.84
2022-11-17T21:31:43.397Z,99578.84
2022-11-17T21:34:17.543Z,99575.53
2022-11-17T21:36:46.476Z,99573.78
2022-11-17T21:39:18.497Z,99561.03
2022-11-17T21:41:49.166Z,99565.34
2022-11-17T21:44:18.075Z,99561.88
2022-11-17T21:46:46.946Z,99557.66
2022-11-17T21:49:16.412Z,99556.91
2022-11-17T21:51:45.671Z,99560.47
2022-11-17T21:54:14.241Z,99562.28
2022-11-17T21:56:43.083Z,99556.38
2022-11-17T21:59:16.506Z,99553.88
2022-11-17T22:01:45.634Z,99558.19
2022-11-17T22:04:15.848Z,99558.13
2022-11-17T22:06:44.714Z,99560.66
2022-11-17T22:09:14.128Z,99560.56
2022-11-17T22:11:43.268Z,99551.13
2022-11-17T22:14:15.953Z,99545.28
2022-11-17T22:16:47.124Z,99526.44
2022-11-17T22:19:18.501Z,99541.78
2022-11-17T22:21:50.935Z,99548.84
2022-11-17T22:24:20.338Z,99545.50
2022-11-17T22:26:49.318Z,99547.13
2022-11-17T22:29:22.143Z,99556.59
2022-11-17T22:31:51.306Z,99549.19
2022-11-17T22:34:19.964Z,99551.47
2022-11-17T22:36:48.834Z,99550.66
2022-11-17T22:39:18.223Z,99543.41
2022-11-17T22:41:47.599Z,99535.66
2022-11-17T22:44:18.313Z,99524.13
2022-11-17T22:46:47.279Z,99537.88
2022-11-17T22:49:16.130Z,99537.97
2022-11-17T22:52:02.897Z,99537.16
2022-11-17T22:54:31.739Z,99528.78
2022-11-17T22:57:00.958Z,99532.16
2022-11-17T22:59:32.223Z,99520.19
2022-11-17T23:06:31.847Z,99518.47
2022-11-17T23:09:00.725Z,99521.03
2022-11-17T23:11:36.958Z,99525.28
2022-11-17T23:14:08.817Z,99520.78
2022-11-17T23:16:39.408Z,99533.16
2022-11-17T23:19:12.250Z,99536.78
2022-11-17T23:21:40.878Z,99531.00
2022-11-17T23:28:44.080Z,99540.59
2022-11-17T23:31:15.440Z,99535.66
2022-11-17T23:33:48.368Z,99529.16
2022-11-17T23:40:50.368Z,99529.31
2022-11-17T23:43:18.915Z,99516.88
2022-11-17T23:45:47.849Z,99512.19
2022-11-17T23:48:16.399Z,99524.59
2022-11-17T23:50:46.638Z,99517.22
2022-11-17T23:53:15.675Z,99513.69
2022-11-17T23:55:44.511Z,99523.81
2022-11-17T23:58:13.069Z,99516.34
